Vereeniging Airport

Airport
ICAO code: 
FAVV
Summary
ICAO Region: 
AFI
Territory: 
Location: 
, Gauteng
Serving: 
Vereeniging
Elevation: 
4846 ft
Coordinates: 
Aerial View: 
26° 33' 58.939" S, 27° 57' 38.722" E
Metar
Observation
FAVV 030400Z AUTO 02002KT //// // ////// 16/14 Q1021
Station
Vereeniging
Date/Time
2021-12-03 04:00:00
Wind direction
20°
Wind speed
02 kts
Lowest cloud amount
n/a
Temperature
16°C
Dew point
14°C
Humidity
87%
QNH
1021 hPa
Weather condition
n/a

Runways

Designator Length Width Surface Rops
15/33 1135 16 ASP No/No
3/21 1605 22 ASP No/No
Airport map: 
Aerial View: 

SKYbrary Partners:

Safety knowledge contributed by: